Sparks, Texas
Current Conditions -  °F | °C
As of 12:55 PM on Monday 20 Oct 2014 (Local Time) from KGRK Reporting Station
Broken Clouds Broken Clouds  
Wind Chill: 79°   Ceiling: 20000
Heat Index: 80°   Visibility: 7mi
Dew Point: 61°   Wind: 0mph
Humidity: 54%   Direction: NA
Pressure: 30.08"   Gusts: NA
Location:  30.8644°N, 97.3623°W
Report Text: KGRK 201755Z 00000KT 7SM SCT031 BKN200 26/16 A3008 RMK SLP183 57010
Loading
Personal Weather Stations






























Interactive Weather Map
Tropical Storm Tracking
New forecast layout! Learn more

10-Day Weather Forecast

Advertisements
Track Severe Weather on mobile